Time;durP1;ratioP1;P1;durP2;ratioP2;P2;SDS_P1;SDS_P2;PMS_P1;PMS_P2;Temp;Humidity;BMP_temperature;BMP_pressure;BME280_temperature;BME280_humidity;BME280_pressure;Samples;Min_cycle;Max_cycle;Signal;HPM_P1;HPM_P2
2022/12/09 00:00:05;;;;;;;12.13;7.20;;;5.70;81.40;;;;;;4966296;28;20039;-60
2022/12/09 00:02:31;;;;;;;10.35;6.80;;;5.80;81.50;;;;;;4968350;28;20070;-59
2022/12/09 00:04:56;;;;;;;11.10;7.60;;;5.70;81.30;;;;;;4968859;28;20066;-59
2022/12/09 00:07:22;;;;;;;10.98;8.00;;;5.70;81.40;;;;;;4969787;28;20015;-59
2022/12/09 00:09:48;;;;;;;10.35;6.15;;;5.80;81.40;;;;;;4966697;28;20113;-57
2022/12/09 00:12:13;;;;;;;9.00;5.00;;;5.80;81.40;;;;;;4969161;28;20536;-59
2022/12/09 00:14:39;;;;;;;7.53;5.63;;;5.80;81.40;;;;;;4970697;28;20598;-57
2022/12/09 00:17:05;;;;;;;9.90;6.43;;;5.80;81.30;;;;;;4970560;28;20555;-59
2022/12/09 00:19:30;;;;;;;10.00;7.38;;;5.80;81.40;;;;;;4971488;28;20100;-57
2022/12/09 00:21:56;;;;;;;11.20;5.88;;;5.80;81.40;;;;;;4963113;28;20128;-57
2022/12/09 00:24:22;;;;;;;7.68;6.78;;;5.80;81.40;;;;;;4971949;28;20031;-59
2022/12/09 00:26:47;;;;;;;10.50;7.32;;;5.80;81.40;;;;;;4970651;28;20031;-57
2022/12/09 00:29:13;;;;;;;10.80;7.75;;;5.80;81.40;;;;;;4971062;28;20026;-59
2022/12/09 00:31:38;;;;;;;10.60;7.50;;;5.80;81.90;;;;;;4970973;28;20400;-57
2022/12/09 00:34:07;;;;;;;10.98;7.28;;;5.80;81.30;;;;;;4971369;28;20129;-57
2022/12/09 00:36:33;;;;;;;10.07;7.28;;;5.80;81.30;;;;;;4970575;28;20033;-59
2022/12/09 00:38:59;;;;;;;14.63;7.80;;;5.80;81.40;;;;;;4970584;28;20497;-59
2022/12/09 00:41:26;;;;;;;12.40;7.55;;;5.80;81.50;;;;;;4970529;28;20077;-59
2022/12/09 00:43:52;;;;;;;11.32;7.07;;;5.80;81.50;;;;;;4971836;28;20041;-58
2022/12/09 00:46:17;;;;;;;10.38;6.32;;;5.80;81.50;;;;;;4970462;28;20023;-58
2022/12/09 00:48:44;;;;;;;10.65;8.07;;;5.80;81.50;;;;;;4971045;28;20074;-58
2022/12/09 00:51:14;;;;;;;11.63;6.70;;;5.80;81.50;;;;;;4969710;28;20538;-58
2022/12/09 00:53:41;;;;;;;8.88;6.43;;;5.80;81.50;;;;;;4970781;28;20058;-59
2022/12/09 00:56:07;;;;;;;10.88;7.18;;;5.70;81.50;;;;;;4970253;28;20113;-57
2022/12/09 00:58:33;;;;;;;9.95;6.82;;;5.70;81.50;;;;;;4971345;28;20114;-59
2022/12/09 01:00:59;;;;;;;8.32;6.88;;;5.70;81.60;;;;;;4970953;28;20105;-59
2022/12/09 01:03:25;;;;;;;9.95;6.50;;;5.70;81.50;;;;;;4970871;28;20030;-56
2022/12/09 01:05:51;;;;;;;10.32;6.22;;;5.70;81.50;;;;;;4969988;28;20501;-57
2022/12/09 01:08:17;;;;;;;7.40;5.70;;;5.60;81.40;;;;;;4970506;28;20041;-57
2022/12/09 01:10:44;;;;;;;11.02;5.93;;;5.60;81.50;;;;;;4963061;28;20114;-59
2022/12/09 01:13:11;;;;;;;7.78;5.68;;;5.60;81.60;;;;;;4971648;28;20023;-59
2022/12/09 01:15:37;;;;;;;9.48;6.05;;;5.60;81.60;;;;;;4969166;28;20030;-59
2022/12/09 01:18:04;;;;;;;9.00;6.05;;;5.50;81.60;;;;;;4977054;28;20550;-58
2022/12/09 01:20:30;;;;;;;9.38;6.38;;;5.50;81.60;;;;;;4968350;28;20027;-59
2022/12/09 01:22:55;;;;;;;14.10;7.07;;;5.50;81.60;;;;;;4971154;28;20101;-58
2022/12/09 01:25:21;;;;;;;7.80;6.22;;;5.50;81.60;;;;;;4964678;28;20030;-58
2022/12/09 01:27:47;;;;;;;9.93;6.30;;;5.50;81.60;;;;;;4969955;28;20451;-57
2022/12/09 01:30:13;;;;;;;11.60;6.20;;;5.50;81.60;;;;;;4969651;28;20034;-59
2022/12/09 01:32:40;;;;;;;8.18;6.72;;;5.50;81.50;;;;;;4971524;28;20034;-58
2022/12/09 01:35:06;;;;;;;10.90;6.07;;;5.50;81.60;;;;;;4969270;28;20023;-58
2022/12/09 01:37:33;;;;;;;9.93;5.63;;;5.50;81.60;;;;;;4970669;28;20493;-60
2022/12/09 01:39:59;;;;;;;7.93;6.25;;;5.50;81.60;;;;;;4969146;28;20034;-60
2022/12/09 01:42:26;;;;;;;8.90;4.78;;;5.50;81.60;;;;;;4970543;28;20031;-58
2022/12/09 01:45:20;;;;;;;9.02;6.00;;;5.50;81.60;;;;;;4968495;28;20034;-59
2022/12/09 01:47:56;;;;;;;11.85;6.38;;;5.50;81.60;;;;;;4968430;28;20529;-60
2022/12/09 01:50:24;;;;;;;7.97;5.80;;;5.50;81.70;;;;;;4969048;28;20517;-60
2022/12/09 01:52:49;;;;;;;7.95;5.75;;;5.50;81.80;;;;;;4970370;28;20399;-60
2022/12/09 01:55:16;;;;;;;9.00;7.10;;;5.40;81.70;;;;;;4970598;28;20031;-60
2022/12/09 01:57:43;;;;;;;9.02;5.85;;;5.40;81.70;;;;;;4969357;28;20244;-59
2022/12/09 02:00:09;;;;;;;11.65;7.57;;;5.40;81.80;;;;;;4968418;28;20386;-58
2022/12/09 02:02:37;;;;;;;10.55;7.32;;;5.30;81.80;;;;;;4968045;28;20168;-58
2022/12/09 02:05:03;;;;;;;8.75;6.45;;;5.30;81.80;;;;;;4967738;28;20035;-58
2022/12/09 02:07:29;;;;;;;9.63;7.10;;;5.30;81.80;;;;;;4969950;28;20046;-58
2022/12/09 02:09:55;;;;;;;7.13;5.75;;;5.30;81.80;;;;;;4970855;28;20085;-58
2022/12/09 02:12:55;;;;;;;10.98;6.45;;;5.30;81.80;;;;;;4968746;28;20038;-58
2022/12/09 02:15:28;;;;;;;8.57;6.53;;;5.30;81.60;;;;;;4970247;28;20419;-58
2022/12/09 02:18:02;;;;;;;11.48;7.50;;;5.30;81.70;;;;;;4970605;28;20030;-58
2022/12/09 02:20:41;;;;;;;7.82;6.25;;;5.20;81.70;;;;;;4970259;28;20034;-58
2022/12/09 02:23:27;;;;;;;12.02;7.32;;;5.20;81.70;;;;;;4972943;28;20039;-60
2022/12/09 02:26:25;;;;;;;8.82;7.00;;;5.20;81.60;;;;;;4971252;28;20038;-57
2022/12/09 02:29:15;;;;;;;9.63;5.65;;;5.10;81.70;;;;;;4969803;28;20541;-61
2022/12/09 02:32:00;;;;;;;9.90;7.20;;;5.10;81.70;;;;;;4973418;28;20027;-58
2022/12/09 02:34:32;;;;;;;9.55;6.25;;;5.10;81.60;;;;;;4971553;28;20073;-60
2022/12/09 02:37:13;;;;;;;7.57;5.93;;;5.10;81.60;;;;;;4971805;28;20065;-58
2022/12/09 02:39:57;;;;;;;8.70;5.75;;;5.00;81.50;;;;;;4973611;28;20081;-59
2022/12/09 02:42:27;;;;;;;7.65;5.70;;;5.00;81.60;;;;;;4972431;28;20066;-58
2022/12/09 02:44:52;;;;;;;11.57;6.20;;;5.00;81.60;;;;;;4973528;28;20061;-60
2022/12/09 02:47:22;;;;;;;10.05;6.47;;;5.00;81.60;;;;;;4971237;28;20078;-58
2022/12/09 02:49:53;;;;;;;9.18;6.57;;;5.00;81.60;;;;;;4969054;28;20427;-58
2022/12/09 02:52:20;;;;;;;8.98;6.80;;;5.00;81.60;;;;;;4972971;28;20505;-58
2022/12/09 02:54:46;;;;;;;10.30;6.53;;;4.90;81.60;;;;;;4972019;28;20023;-58
2022/12/09 02:57:17;;;;;;;9.48;6.45;;;4.90;81.60;;;;;;4971422;28;20046;-58
2022/12/09 02:59:43;;;;;;;9.63;6.13;;;5.00;81.60;;;;;;4969573;28;20019;-60
2022/12/09 03:02:25;;;;;;;7.10;5.38;;;5.00;81.50;;;;;;4972838;28;20390;-60
2022/12/09 03:05:16;;;;;;;10.27;6.55;;;5.00;81.40;;;;;;4971799;28;20041;-60
2022/12/09 03:07:48;;;;;;;18.73;6.40;;;4.90;81.40;;;;;;4972123;28;20085;-58
2022/12/09 03:10:26;;;;;;;12.60;6.23;;;4.90;81.40;;;;;;4972900;28;20138;-60
2022/12/09 03:13:02;;;;;;;8.25;6.35;;;5.00;81.30;;;;;;4973264;28;20681;-59
2022/12/09 03:15:32;;;;;;;10.43;7.03;;;5.00;81.40;;;;;;4971928;28;20027;-61
2022/12/09 03:18:02;;;;;;;8.65;6.22;;;4.90;81.40;;;;;;4970927;28;20113;-59
2022/12/09 03:20:33;;;;;;;8.48;7.00;;;4.90;81.40;;;;;;4968856;28;20030;-59
2022/12/09 03:23:02;;;;;;;9.90;7.43;;;5.00;81.40;;;;;;4971349;28;20085;-57
2022/12/09 03:25:36;;;;;;;9.10;6.75;;;5.00;81.40;;;;;;4970159;28;20019;-57
2022/12/09 03:28:06;;;;;;;10.68;7.30;;;5.00;81.40;;;;;;4971578;28;20066;-59
2022/12/09 03:30:36;;;;;;;11.43;7.03;;;5.00;81.40;;;;;;4969106;28;20394;-58
2022/12/09 03:33:03;;;;;;;8.23;6.38;;;5.00;81.50;;;;;;4971171;28;20030;-60
2022/12/09 03:35:31;;;;;;;12.43;7.50;;;5.00;81.40;;;;;;4971381;28;20176;-59
2022/12/09 03:37:58;;;;;;;11.43;7.18;;;5.00;81.40;;;;;;4970493;28;20030;-57
2022/12/09 03:40:27;;;;;;;10.65;6.45;;;5.00;81.40;;;;;;4970634;28;20058;-57
2022/12/09 03:42:58;;;;;;;6.75;5.78;;;5.00;81.40;;;;;;4971979;28;20038;-58
2022/12/09 03:45:25;;;;;;;7.85;6.05;;;5.00;81.40;;;;;;4968934;28;20090;-57
2022/12/09 03:47:52;;;;;;;11.85;6.80;;;5.00;81.40;;;;;;4968611;28;20042;-57
2022/12/09 03:50:20;;;;;;;10.02;5.78;;;5.00;81.40;;;;;;4970004;28;20343;-59
2022/12/09 03:52:51;;;;;;;10.52;5.90;;;4.90;81.40;;;;;;4970194;28;20018;-59
2022/12/09 03:55:29;;;;;;;11.50;6.55;;;4.90;81.40;;;;;;4969432;28;20113;-59
2022/12/09 03:57:57;;;;;;;10.02;6.60;;;4.80;81.50;;;;;;4969142;28;20031;-58
2022/12/09 04:00:23;;;;;;;9.73;5.40;;;4.70;81.50;;;;;;4970221;28;20531;-57
2022/12/09 04:02:49;;;;;;;9.02;6.63;;;4.70;81.60;;;;;;4970333;28;20039;-59
2022/12/09 04:05:15;;;;;;;11.20;7.40;;;4.60;81.70;;;;;;4970006;28;20459;-57
2022/12/09 04:07:41;;;;;;;9.50;6.72;;;4.60;81.70;;;;;;4969801;28;20058;-55
2022/12/09 04:10:07;;;;;;;9.63;7.03;;;4.60;81.70;;;;;;4968735;28;20058;-57
2022/12/09 04:12:32;;;;;;;9.00;6.57;;;4.50;81.60;;;;;;4971116;28;20023;-57
2022/12/09 04:14:58;;;;;;;9.38;6.90;;;4.50;81.70;;;;;;4970098;28;20043;-57
2022/12/09 04:17:24;;;;;;;12.32;6.65;;;4.50;81.70;;;;;;4968718;28;20031;-59
2022/12/09 04:19:49;;;;;;;9.55;6.10;;;4.40;81.60;;;;;;4970450;28;20057;-55
2022/12/09 04:22:15;;;;;;;9.25;6.43;;;4.40;81.60;;;;;;4967368;28;20038;-59
2022/12/09 04:24:41;;;;;;;9.07;6.82;;;4.40;81.50;;;;;;4970067;28;20039;-59
2022/12/09 04:27:06;;;;;;;9.35;5.32;;;4.30;81.40;;;;;;4967792;28;20035;-60
2022/12/09 04:29:33;;;;;;;11.68;7.28;;;4.30;81.40;;;;;;4966534;28;20584;-59
2022/12/09 04:31:58;;;;;;;10.10;6.28;;;4.30;81.30;;;;;;4962368;28;20101;-58
2022/12/09 04:34:24;;;;;;;10.95;5.95;;;4.30;81.20;;;;;;4969467;28;20023;-59
2022/12/09 04:36:50;;;;;;;7.25;5.90;;;4.20;81.00;;;;;;4967751;28;20095;-59
2022/12/09 04:39:15;;;;;;;11.82;8.00;;;4.20;81.10;;;;;;4970208;28;20046;-57
2022/12/09 04:41:41;;;;;;;7.60;4.57;;;4.20;81.20;;;;;;4970763;28;20065;-59
2022/12/09 04:44:07;;;;;;;6.80;5.68;;;4.10;81.20;;;;;;4970455;28;20031;-59
2022/12/09 04:46:32;;;;;;;10.65;6.57;;;4.10;81.10;;;;;;4969177;28;20026;-56
2022/12/09 04:48:58;;;;;;;8.35;6.03;;;4.20;81.10;;;;;;4969677;28;20509;-59
2022/12/09 04:51:24;;;;;;;7.97;4.75;;;4.10;81.10;;;;;;4968635;28;20035;-59
2022/12/09 04:53:49;;;;;;;6.22;4.90;;;4.10;81.10;;;;;;4951861;28;20027;-56
2022/12/09 04:56:20;;;;;;;10.30;6.32;;;4.10;81.00;;;;;;4969496;28;20107;-59
2022/12/09 04:58:47;;;;;;;6.68;5.43;;;4.10;81.10;;;;;;4967967;28;20027;-57
2022/12/09 05:01:16;;;;;;;6.93;5.75;;;4.10;81.10;;;;;;4957527;28;20037;-56
2022/12/09 05:03:42;;;;;;;9.18;5.80;;;4.10;81.10;;;;;;4969297;28;20034;-57
2022/12/09 05:06:11;;;;;;;9.60;5.43;;;4.10;81.10;;;;;;4968423;28;20034;-59
2022/12/09 05:08:37;;;;;;;10.30;5.97;;;4.10;81.00;;;;;;4963204;28;20026;-57
2022/12/09 05:11:03;;;;;;;8.88;6.38;;;4.10;81.00;;;;;;4958354;28;20373;-58
2022/12/09 05:13:29;;;;;;;7.65;5.03;;;4.10;81.00;;;;;;4968999;28;20406;-58
2022/12/09 05:16:04;;;;;;;9.10;6.05;;;4.10;80.90;;;;;;4970869;28;20385;-59
2022/12/09 05:18:31;;;;;;;8.43;5.97;;;4.10;81.00;;;;;;4970284;28;20030;-59
2022/12/09 05:20:56;;;;;;;8.55;5.78;;;4.10;81.00;;;;;;4969400;28;20039;-58
2022/12/09 05:23:22;;;;;;;7.97;5.25;;;4.20;80.90;;;;;;4970217;28;20034;-57
2022/12/09 05:25:48;;;;;;;10.43;6.60;;;4.20;80.90;;;;;;4970724;28;20027;-57
2022/12/09 05:28:14;;;;;;;9.02;6.43;;;4.20;80.90;;;;;;4970736;28;20035;-59
2022/12/09 05:30:40;;;;;;;8.07;5.13;;;4.20;80.90;;;;;;4970285;28;20089;-59
2022/12/09 05:33:06;;;;;;;7.57;5.70;;;4.30;80.90;;;;;;4970712;28;20351;-59
2022/12/09 05:35:32;;;;;;;8.18;5.50;;;4.30;80.80;;;;;;4965173;28;20502;-59
2022/12/09 05:37:58;;;;;;;7.20;5.40;;;4.30;80.90;;;;;;4966242;28;20029;-58
2022/12/09 05:40:23;;;;;;;9.00;5.10;;;4.40;80.80;;;;;;4969810;28;20039;-59
2022/12/09 05:42:49;;;;;;;7.82;4.43;;;4.30;80.70;;;;;;4970860;28;20045;-57
2022/12/09 05:45:15;;;;;;;7.05;4.20;;;4.40;80.80;;;;;;4969477;28;20085;-57
2022/12/09 05:47:41;;;;;;;7.05;5.43;;;4.30;80.70;;;;;;4971065;28;20234;-57
2022/12/09 05:50:07;;;;;;;6.80;4.28;;;4.30;80.70;;;;;;4969386;28;20109;-59
2022/12/09 05:52:36;;;;;;;9.80;5.72;;;4.20;80.80;;;;;;4969745;28;20149;-55
2022/12/09 05:55:04;;;;;;;9.27;5.20;;;4.20;80.90;;;;;;4969684;28;20030;-57
2022/12/09 05:57:31;;;;;;;7.13;4.70;;;4.20;81.00;;;;;;4969154;28;20027;-57
2022/12/09 05:59:57;;;;;;;6.88;4.28;;;4.20;81.00;;;;;;4966671;28;20034;-57
2022/12/09 06:02:23;;;;;;;8.63;4.57;;;4.20;81.00;;;;;;4968282;28;20046;-57
2022/12/09 06:04:49;;;;;;;6.82;5.28;;;4.10;80.90;;;;;;4964958;28;20039;-57
2022/12/09 06:07:15;;;;;;;6.25;4.43;;;4.10;81.00;;;;;;4966622;28;20454;-57
2022/12/09 06:09:41;;;;;;;7.55;5.20;;;4.10;80.90;;;;;;4970584;28;20042;-58
2022/12/09 06:12:07;;;;;;;7.07;4.43;;;4.00;80.90;;;;;;4969535;28;20027;-58
2022/12/09 06:14:33;;;;;;;6.13;5.07;;;4.00;81.00;;;;;;4970344;28;20377;-57
2022/12/09 06:16:59;;;;;;;6.70;4.78;;;3.90;81.10;;;;;;4968637;28;20042;-56
2022/12/09 06:19:24;;;;;;;8.45;5.38;;;3.90;81.10;;;;;;4969432;28;20111;-59
2022/12/09 06:21:50;;;;;;;7.93;4.60;;;3.90;81.20;;;;;;4969087;28;20497;-60
2022/12/09 06:24:15;;;;;;;6.25;4.93;;;3.80;81.10;;;;;;4966078;28;20031;-59
2022/12/09 06:26:41;;;;;;;9.07;4.25;;;3.80;81.00;;;;;;4965270;28;20030;-59
2022/12/09 06:29:08;;;;;;;7.88;5.00;;;3.80;80.90;;;;;;4967931;28;20033;-59
2022/12/09 06:31:34;;;;;;;7.20;4.50;;;3.80;80.90;;;;;;4969050;28;20572;-59
2022/12/09 06:33:59;;;;;;;8.35;4.78;;;3.80;81.00;;;;;;4968992;28;20023;-59
2022/12/09 06:36:27;;;;;;;8.43;4.28;;;3.70;80.90;;;;;;4967220;28;20158;-59
2022/12/09 06:38:53;;;;;;;7.40;4.55;;;3.60;81.00;;;;;;4968315;28;20038;-59
2022/12/09 06:41:19;;;;;;;4.75;4.15;;;3.60;81.00;;;;;;4965532;28;20037;-59
2022/12/09 06:43:44;;;;;;;9.02;4.07;;;3.60;80.90;;;;;;4963121;28;20097;-59
2022/12/09 06:46:11;;;;;;;6.15;3.90;;;3.50;81.00;;;;;;4966433;28;20019;-59
2022/12/09 06:48:37;;;;;;;6.68;4.03;;;3.50;81.20;;;;;;4968771;28;20073;-59
2022/12/09 06:51:03;;;;;;;5.70;4.38;;;3.40;81.10;;;;;;4967639;28;20066;-59
2022/12/09 06:53:28;;;;;;;6.63;4.72;;;3.40;81.20;;;;;;4968160;28;20030;-59
2022/12/09 06:55:54;;;;;;;5.47;4.50;;;3.30;81.10;;;;;;4967237;28;20038;-59
2022/12/09 06:58:19;;;;;;;9.13;5.55;;;3.30;81.00;;;;;;4957279;28;20053;-59
2022/12/09 07:00:45;;;;;;;6.65;4.63;;;3.30;81.00;;;;;;4965557;28;20368;-59
2022/12/09 07:03:11;;;;;;;6.60;4.45;;;3.30;81.00;;;;;;4963667;28;20038;-59
2022/12/09 07:05:38;;;;;;;8.73;5.05;;;3.20;80.90;;;;;;4967386;28;20548;-56
2022/12/09 07:08:03;;;;;;;7.15;5.15;;;3.20;80.90;;;;;;4965775;28;20041;-59
2022/12/09 07:10:29;;;;;;;6.78;4.32;;;3.20;81.00;;;;;;4969870;28;20027;-63
2022/12/09 07:12:55;;;;;;;7.25;5.05;;;3.10;81.00;;;;;;4968271;28;20680;-61
2022/12/09 07:15:20;;;;;;;5.13;4.55;;;3.10;81.10;;;;;;4970615;28;20106;-62
2022/12/09 07:17:46;;;;;;;8.20;5.05;;;3.10;81.70;;;;;;4970422;28;20464;-61
2022/12/09 07:20:12;;;;;;;7.03;4.25;;;3.10;81.20;;;;;;4971366;28;20027;-60
2022/12/09 07:22:37;;;;;;;6.03;4.20;;;3.10;81.10;;;;;;4969345;28;20035;-61
2022/12/09 07:25:03;;;;;;;4.75;3.88;;;3.10;81.60;;;;;;4969540;28;20481;-60
2022/12/09 07:27:29;;;;;;;6.03;3.92;;;3.00;80.90;;;;;;4968589;28;20058;-60
2022/12/09 07:29:56;;;;;;;6.25;4.78;;;3.00;81.00;;;;;;4969421;28;20027;-62
2022/12/09 07:32:22;;;;;;;5.43;3.88;;;3.00;81.00;;;;;;4969185;28;20035;-61
2022/12/09 07:34:47;;;;;;;5.55;4.05;;;3.00;81.00;;;;;;4970237;28;20077;-58
2022/12/09 07:37:13;;;;;;;6.18;4.20;;;3.00;81.00;;;;;;4968460;28;20039;-61
2022/12/09 07:39:39;;;;;;;5.90;4.05;;;3.00;81.10;;;;;;4970309;28;20057;-62
2022/12/09 07:42:04;;;;;;;5.13;3.75;;;3.00;81.10;;;;;;4952614;28;20062;-61
2022/12/09 07:44:30;;;;;;;8.27;4.22;;;3.00;81.00;;;;;;4969297;28;20037;-62
2022/12/09 07:46:56;;;;;;;5.93;4.20;;;3.00;81.00;;;;;;4964939;28;20034;-58
2022/12/09 07:49:22;;;;;;;4.90;3.92;;;2.90;80.90;;;;;;4970825;28;20154;-59
2022/12/09 07:51:48;;;;;;;6.53;4.35;;;2.90;80.90;;;;;;4971576;28;20462;-59
2022/12/09 07:54:16;;;;;;;5.22;3.45;;;3.00;80.90;;;;;;4972039;28;20110;-57
2022/12/09 07:56:42;;;;;;;4.43;3.60;;;3.00;80.80;;;;;;4964059;28;20474;-55
2022/12/09 07:59:10;;;;;;;6.78;4.47;;;2.90;80.60;;;;;;4969113;28;20486;-56
2022/12/09 08:01:37;;;;;;;4.15;3.25;;;2.90;81.20;;;;;;4961985;28;20397;-58
2022/12/09 08:04:05;;;;;;;4.53;2.78;;;2.90;80.70;;;;;;4971614;28;21425;-58
2022/12/09 08:06:30;;;;;;;6.38;4.35;;;2.90;80.60;;;;;;4965172;28;20046;-60
2022/12/09 08:08:58;;;;;;;4.28;3.38;;;3.00;80.50;;;;;;4969407;28;20050;-57
2022/12/09 08:11:26;;;;;;;6.18;3.85;;;3.00;80.50;;;;;;4970283;28;20393;-58
2022/12/09 08:13:54;;;;;;;5.15;3.47;;;3.10;80.50;;;;;;4971080;28;20410;-58
2022/12/09 08:16:21;;;;;;;6.22;3.40;;;3.10;80.30;;;;;;4966750;28;20045;-58
2022/12/09 08:18:47;;;;;;;7.07;4.60;;;3.10;80.20;;;;;;4969127;28;20027;-58
2022/12/09 08:21:21;;;;;;;8.25;3.72;;;3.10;80.10;;;;;;4968531;28;20045;-58
2022/12/09 08:23:47;;;;;;;5.35;4.47;;;3.20;80.20;;;;;;4967333;28;20034;-60
2022/12/09 08:26:14;;;;;;;4.18;3.00;;;3.20;80.10;;;;;;4970562;28;20114;-60
2022/12/09 08:28:40;;;;;;;6.88;4.35;;;3.30;80.10;;;;;;4984423;28;20035;-60
2022/12/09 08:31:17;;;;;;;5.13;3.47;;;3.30;80.10;;;;;;4970627;28;20023;-59
2022/12/09 08:33:43;;;;;;;8.20;5.18;;;3.40;80.10;;;;;;4971177;28;20026;-60
2022/12/09 08:36:12;;;;;;;5.35;3.70;;;3.40;80.00;;;;;;4969997;28;20508;-57
2022/12/09 08:38:38;;;;;;;5.20;3.38;;;3.40;80.00;;;;;;4970869;28;20122;-60
2022/12/09 08:41:36;;;;;;;6.63;4.13;;;3.50;80.00;;;;;;4971287;28;20474;-60
2022/12/09 08:44:03;;;;;;;4.82;3.55;;;3.50;80.00;;;;;;4966960;28;20557;-60
2022/12/09 08:46:29;;;;;;;5.30;4.35;;;3.50;80.10;;;;;;4970189;28;20370;-60
2022/12/09 08:48:55;;;;;;;5.95;4.25;;;3.60;80.20;;;;;;4971043;28;20043;-58
2022/12/09 08:51:21;;;;;;;6.95;4.55;;;3.60;80.10;;;;;;4964635;28;20027;-58
2022/12/09 08:53:46;;;;;;;8.00;4.75;;;3.70;80.10;;;;;;4969190;28;20031;-57
2022/12/09 08:56:15;;;;;;;4.28;3.35;;;3.70;80.10;;;;;;4968503;28;20062;-57
2022/12/09 08:58:41;;;;;;;5.60;4.47;;;3.70;80.20;;;;;;4969015;28;20408;-60
2022/12/09 09:01:13;;;;;;;7.07;4.30;;;3.80;80.20;;;;;;4963094;28;20039;-60
2022/12/09 09:03:39;;;;;;;;;;;3.80;80.10;;;;;;4971219;28;20031;-60
2022/12/09 09:06:06;;;;;;;5.47;3.70;;;3.80;80.00;;;;;;4968518;28;19975;-60
2022/12/09 09:08:32;;;;;;;6.80;3.47;;;3.80;80.20;;;;;;4970129;28;20491;-60
2022/12/09 09:10:58;;;;;;;6.30;4.30;;;3.90;80.10;;;;;;4970891;28;20589;-60
2022/12/09 09:13:24;;;;;;;4.45;3.88;;;3.90;80.10;;;;;;4968243;28;20110;-58
2022/12/09 09:15:50;;;;;;;4.22;3.28;;;4.00;80.20;;;;;;4965938;28;20397;-60
2022/12/09 09:18:16;;;;;;;7.05;5.13;;;4.00;80.10;;;;;;4969340;28;20034;-60
2022/12/09 09:20:51;;;;;;;7.32;4.82;;;4.00;80.10;;;;;;4968944;28;20045;-57
2022/12/09 09:23:16;;;;;;;6.50;4.85;;;4.10;80.10;;;;;;4970704;28;20073;-60
2022/12/09 09:25:42;;;;;;;6.05;4.32;;;4.10;80.10;;;;;;4969113;28;20077;-58
2022/12/09 09:28:09;;;;;;;7.10;5.22;;;4.10;80.10;;;;;;4969267;28;20449;-57
2022/12/09 09:30:35;;;;;;;10.07;6.63;;;4.20;80.10;;;;;;4970758;28;20034;-60
2022/12/09 09:33:01;;;;;;;7.68;5.82;;;4.20;80.20;;;;;;4966010;28;20133;-60
2022/12/09 09:35:27;;;;;;;6.72;5.32;;;4.20;80.20;;;;;;4970494;28;20102;-60
2022/12/09 09:37:53;;;;;;;8.88;5.82;;;4.20;80.30;;;;;;4950097;28;20035;-60
2022/12/09 09:40:20;;;;;;;9.05;5.43;;;4.20;80.30;;;;;;4970137;28;20030;-60
2022/12/09 09:42:49;;;;;;;10.15;5.50;;;4.30;80.40;;;;;;4966553;28;20105;-60
2022/12/09 09:45:19;;;;;;;7.47;6.10;;;4.30;80.30;;;;;;4970275;28;20470;-60
2022/12/09 09:47:47;;;;;;;5.03;4.53;;;4.40;80.30;;;;;;4965811;28;20042;-60
2022/12/09 09:50:36;;;;;;;9.52;5.53;;;4.40;80.40;;;;;;4967262;28;20062;-57
2022/12/09 09:53:23;;;;;;;6.85;5.10;;;4.40;80.30;;;;;;4960149;28;20031;-60
2022/12/09 09:56:04;;;;;;;7.38;5.55;;;4.40;80.20;;;;;;4966149;28;20511;-60
2022/12/09 09:58:40;;;;;;;5.57;4.87;;;4.40;80.20;;;;;;4962193;28;20031;-60
2022/12/09 10:01:10;;;;;;;7.93;4.47;;;4.40;80.40;;;;;;4970110;28;20034;-60
2022/12/09 10:04:23;;;;;;;7.78;5.18;;;4.40;80.40;;;;;;4964957;28;20478;-60
2022/12/09 10:06:53;;;;;;;9.05;4.97;;;4.50;80.30;;;;;;4965115;28;20093;-61
2022/12/09 10:09:47;;;;;;;6.65;4.07;;;4.40;80.30;;;;;;4968692;28;20022;-60
2022/12/09 10:12:22;;;;;;;6.53;4.43;;;4.50;80.20;;;;;;4968383;28;20069;-60
2022/12/09 10:15:11;;;;;;;7.63;4.38;;;4.50;80.20;;;;;;4969611;28;20035;-61
2022/12/09 10:18:15;;;;;;;5.82;4.63;;;4.50;80.00;;;;;;4968031;28;20023;-60
2022/12/09 10:20:42;;;;;;;8.05;4.28;;;4.60;80.00;;;;;;4965634;28;20049;-60
2022/12/09 10:23:15;;;;;;;11.52;5.00;;;4.60;80.00;;;;;;4976867;28;21250;-61
2022/12/09 10:25:51;;;;;;;8.30;4.28;;;4.60;79.80;;;;;;4968987;28;20453;-71
2022/12/09 10:28:32;;;;;;;9.57;4.47;;;4.70;79.80;;;;;;4969609;28;20026;-60
2022/12/09 10:30:58;;;;;;;6.70;3.97;;;4.70;79.70;;;;;;4971126;28;20030;-60
2022/12/09 10:33:33;;;;;;;9.48;5.78;;;4.80;79.70;;;;;;4967877;28;20473;-60
2022/12/09 10:35:59;;;;;;;6.65;4.80;;;4.80;80.10;;;;;;4969877;28;20367;-61
2022/12/09 10:38:27;;;;;;;10.05;6.85;;;4.90;79.60;;;;;;4969878;28;20081;-60
2022/12/09 10:41:06;;;;;;;8.13;6.03;;;4.90;79.90;;;;;;4969138;28;20043;-61
2022/12/09 10:43:36;;;;;;;10.90;6.38;;;4.80;78.90;;;;;;4972965;28;20052;-60
2022/12/09 10:46:06;;;;;;;11.02;5.88;;;4.80;79.10;;;;;;4967493;28;20065;-61
2022/12/09 10:48:36;;;;;;;8.23;5.72;;;4.80;79.10;;;;;;4984467;28;20035;-60
2022/12/09 10:51:24;;;;;;;10.68;5.07;;;4.90;79.20;;;;;;4972448;28;20462;-60
2022/12/09 10:53:52;;;;;;;10.25;5.25;;;4.90;79.10;;;;;;4973490;28;20050;-61
2022/12/09 10:56:27;;;;;;;12.20;5.68;;;4.90;79.00;;;;;;4974681;28;20030;-56
2022/12/09 10:59:18;;;;;;;7.18;5.05;;;4.90;79.00;;;;;;4972735;28;20085;-60
2022/12/09 11:01:48;;;;;;;8.57;6.35;;;4.90;78.60;;;;;;4974055;28;20030;-60
2022/12/09 11:04:20;;;;;;;9.32;6.55;;;4.90;78.70;;;;;;4974117;28;20093;-60
2022/12/09 11:06:45;;;;;;;9.50;5.63;;;4.90;78.70;;;;;;4973668;28;20119;-61
2022/12/09 11:09:23;;;;;;;7.95;6.22;;;4.90;78.60;;;;;;4975996;28;20688;-58
2022/12/09 11:11:49;;;;;;;11.27;6.72;;;4.90;78.50;;;;;;4974541;28;20493;-59
2022/12/09 11:14:28;;;;;;;9.18;5.05;;;4.90;78.60;;;;;;4971738;28;20037;-57
2022/12/09 11:17:16;;;;;;;10.48;5.82;;;4.90;78.50;;;;;;4974282;28;20123;-57
2022/12/09 11:19:53;;;;;;;8.77;6.38;;;5.00;78.60;;;;;;4974027;28;20038;-57
2022/12/09 11:22:22;;;;;;;6.63;4.80;;;5.00;78.50;;;;;;4971973;28;20033;-61
2022/12/09 11:24:52;;;;;;;8.30;5.47;;;5.10;78.50;;;;;;4970126;28;20437;-61
2022/12/09 11:27:33;;;;;;;11.65;6.15;;;5.10;78.50;;;;;;4968335;28;20049;-57
2022/12/09 11:30:23;;;;;;;8.35;4.68;;;5.10;78.30;;;;;;4972502;28;20707;-60
2022/12/09 11:32:52;;;;;;;6.40;4.40;;;5.10;78.30;;;;;;4962136;28;20023;-60
2022/12/09 11:35:23;;;;;;;7.82;5.38;;;5.10;78.40;;;;;;4970449;28;20042;-58
2022/12/09 11:37:50;;;;;;;5.07;4.57;;;5.10;78.50;;;;;;4973141;28;20030;-57
2022/12/09 11:40:17;;;;;;;7.18;5.47;;;5.10;78.50;;;;;;4973929;28;20058;-56
2022/12/09 11:42:49;;;;;;;10.10;6.43;;;5.10;78.60;;;;;;4973966;28;20482;-61
2022/12/09 11:45:24;;;;;;;13.18;6.18;;;5.10;78.80;;;;;;4973725;28;20022;-60
2022/12/09 11:47:51;;;;;;;6.03;4.75;;;5.10;78.50;;;;;;4975307;28;20073;-58
2022/12/09 11:50:19;;;;;;;10.50;5.45;;;5.10;78.50;;;;;;4965779;28;20039;-59
2022/12/09 11:52:46;;;;;;;8.20;4.93;;;5.20;78.60;;;;;;4971306;28;20101;-58
2022/12/09 11:55:22;;;;;;;6.18;4.00;;;5.20;78.50;;;;;;4965794;28;20155;-61
2022/12/09 11:57:55;;;;;;;10.18;4.40;;;5.20;78.50;;;;;;4972258;28;20062;-61
2022/12/09 12:00:29;;;;;;;9.73;4.22;;;5.10;78.30;;;;;;4970468;28;20426;-61
2022/12/09 12:03:39;;;;;;;8.77;5.45;;;5.20;78.20;;;;;;4971322;28;20114;-60
2022/12/09 12:06:20;;;;;;;12.18;5.70;;;5.20;78.10;;;;;;4956324;28;20085;-57
2022/12/09 12:08:59;;;;;;;9.88;5.40;;;5.20;78.10;;;;;;4971610;28;20026;-58
2022/12/09 12:11:37;;;;;;;9.02;5.15;;;5.20;78.10;;;;;;4972375;28;20023;-61
2022/12/09 12:14:12;;;;;;;7.13;4.13;;;5.30;78.00;;;;;;4970519;28;20026;-61
2022/12/09 12:17:07;;;;;;;7.88;5.20;;;5.30;78.10;;;;;;4972184;28;20051;-58
2022/12/09 12:19:36;;;;;;;8.55;5.10;;;5.30;78.00;;;;;;4972463;28;20023;-57
2022/12/09 12:22:23;;;;;;;7.43;5.43;;;5.20;77.80;;;;;;4972511;28;20036;-58
2022/12/09 12:25:24;;;;;;;4.47;3.95;;;5.30;77.90;;;;;;4971977;28;20427;-57
2022/12/09 12:28:11;;;;;;;9.65;5.57;;;5.30;78.00;;;;;;4953844;28;20039;-58
2022/12/09 12:31:05;;;;;;;6.07;3.83;;;5.40;78.00;;;;;;4969751;28;20475;-61
2022/12/09 12:33:49;;;;;;;9.02;4.13;;;5.40;77.80;;;;;;4972147;28;20078;-61
2022/12/09 12:36:26;;;;;;;7.32;4.82;;;5.40;77.70;;;;;;4970307;28;20022;-61
2022/12/09 12:39:04;;;;;;;5.90;3.95;;;5.50;77.70;;;;;;4970982;28;20058;-58
2022/12/09 12:41:56;;;;;;;11.63;6.00;;;5.50;77.60;;;;;;4967785;28;20034;-61
2022/12/09 12:47:51;;;;;;;6.70;4.30;;;5.40;76.90;;;;;;4964393;28;20054;-58
2022/12/09 12:50:49;;;;;;;5.72;4.65;;;5.30;77.00;;;;;;4967464;28;20034;-61
2022/12/09 12:53:28;;;;;;;7.38;4.50;;;5.40;76.90;;;;;;4938922;28;20041;-60
2022/12/09 12:56:22;;;;;;;5.15;4.65;;;5.40;77.00;;;;;;4968340;28;20039;-61
2022/12/09 12:59:21;;;;;;;8.85;4.85;;;5.50;77.00;;;;;;4968645;28;20046;-58
2022/12/09 13:01:49;;;;;;;8.02;4.28;;;5.50;76.80;;;;;;4971212;28;20117;-60
2022/12/09 13:04:37;;;;;;;5.90;4.07;;;5.50;76.90;;;;;;4966451;28;20031;-58
2022/12/09 13:07:20;;;;;;;7.97;3.97;;;5.50;77.30;;;;;;4966491;28;20129;-58
2022/12/09 13:09:56;;;;;;;4.72;3.63;;;5.50;77.60;;;;;;4962295;28;20454;-58
2022/12/09 13:15:15;;;;;;;5.93;3.63;;;5.40;76.90;;;;;;4968746;28;20505;-61
2022/12/09 13:17:43;;;;;;;5.60;3.70;;;5.40;76.90;;;;;;4971219;28;20034;-58